Time;durP1;ratioP1;P1;durP2;ratioP2;P2;SDS_P1;SDS_P2;PMS_P1;PMS_P2;Temp;Humidity;BMP_temperature;BMP_pressure;BME280_temperature;BME280_humidity;BME280_pressure;Samples;Min_cycle;Max_cycle;Signal;HPM_P1;HPM_P2
2022/06/13 00:00:58;;;;;;;1999.90;999.90;;;17.20;99.90;;;;;;4974513;28;20027;-81
2022/06/13 00:03:23;;;;;;;1999.90;999.90;;;17.10;99.90;;;;;;4973814;28;20105;-74
2022/06/13 00:05:49;;;;;;;1999.90;999.90;;;17.10;99.90;;;;;;4973936;28;20091;-73
2022/06/13 00:08:15;;;;;;;1999.90;999.90;;;17.00;99.90;;;;;;4974670;28;20031;-74
2022/06/13 00:10:41;;;;;;;1999.90;999.90;;;17.00;99.90;;;;;;4959052;28;20027;-74
2022/06/13 00:13:06;;;;;;;1999.90;999.90;;;16.90;99.90;;;;;;4955092;29;20024;-80
2022/06/13 00:15:33;;;;;;;1999.90;999.90;;;16.90;99.90;;;;;;4954304;29;20034;-73
2022/06/13 00:17:59;;;;;;;1999.90;999.90;;;16.80;99.90;;;;;;4954349;29;20106;-73
2022/06/13 00:20:24;;;;;;;1999.90;999.90;;;16.80;99.90;;;;;;4954977;29;20059;-74
2022/06/13 00:22:50;;;;;;;1999.90;999.90;;;16.80;99.90;;;;;;4954703;29;20442;-74
2022/06/13 00:25:16;;;;;;;1999.90;999.90;;;16.70;99.90;;;;;;4954907;29;20102;-73
2022/06/13 00:27:43;;;;;;;1999.90;999.90;;;16.70;99.90;;;;;;4953259;29;20027;-79
2022/06/13 00:30:10;;;;;;;1999.90;999.90;;;16.60;99.90;;;;;;4970388;28;20106;-73
2022/06/13 00:32:36;;;;;;;1999.90;999.90;;;16.60;99.90;;;;;;4973859;28;20130;-74
2022/06/13 00:35:02;;;;;;;1999.90;999.90;;;16.50;99.90;;;;;;4964030;28;20244;-74
2022/06/13 00:37:28;;;;;;;1999.90;999.90;;;16.50;99.90;;;;;;4953555;29;20031;-80
2022/06/13 00:39:54;;;;;;;1999.90;999.90;;;16.40;99.90;;;;;;4944398;29;20062;-81
2022/06/13 00:42:25;;;;;;;1999.90;999.90;;;16.30;99.90;;;;;;4954654;29;20055;-76
2022/06/13 00:45:29;;;;;;;1999.90;999.90;;;16.30;99.90;;;;;;4943884;29;20114;-73
2022/06/13 00:47:55;;;;;;;1999.90;999.90;;;16.30;99.90;;;;;;4952439;28;20506;-73
2022/06/13 00:50:39;;;;;;;1999.90;999.90;;;16.20;99.90;;;;;;4954484;29;20031;-79
2022/06/13 00:53:07;;;;;;;;;;;16.10;99.90;;;;;;4954723;29;20051;-73
2022/06/13 00:55:38;;;;;;;1999.90;999.90;;;16.10;99.90;;;;;;4951891;29;19925;-73
2022/06/13 00:58:04;;;;;;;1999.90;999.90;;;16.00;99.90;;;;;;4949834;29;20031;-74
2022/06/13 01:00:32;;;;;;;1999.90;999.90;;;16.00;99.90;;;;;;4937244;29;20023;-73
2022/06/13 01:03:00;;;;;;;1999.90;999.90;;;16.00;99.90;;;;;;4954413;29;20031;-79
2022/06/13 01:05:29;;;;;;;1999.90;999.90;;;15.90;99.90;;;;;;4954299;29;20026;-73
2022/06/13 01:07:56;;;;;;;1999.90;999.90;;;15.90;99.90;;;;;;4954298;29;20122;-73
2022/06/13 01:13:10;;;;;;;1999.90;999.90;;;15.80;99.90;;;;;;4968536;28;20062;-79
2022/06/13 01:15:48;;;;;;;1999.90;999.90;;;15.80;99.90;;;;;;4972909;28;20027;-79
2022/06/13 01:18:19;;;;;;;1999.90;999.90;;;15.70;99.90;;;;;;4974580;28;20030;-73
2022/06/13 01:21:12;;;;;;;1999.90;999.90;;;15.60;99.90;;;;;;4977068;28;20026;-73
2022/06/13 01:24:06;;;;;;;1999.90;999.90;;;15.60;99.90;;;;;;4941745;29;20110;-79
2022/06/13 01:26:53;;;;;;;1999.90;999.90;;;15.50;99.90;;;;;;4959190;29;20494;-80
2022/06/13 01:29:28;;;;;;;1999.90;999.90;;;15.50;99.90;;;;;;4952444;29;20031;-80
2022/06/13 01:32:24;;;;;;;1999.90;999.90;;;15.50;99.90;;;;;;4941511;29;20027;-73
2022/06/13 01:35:21;;;;;;;1999.90;999.90;;;15.50;99.90;;;;;;4957948;28;20061;-79
2022/06/13 01:37:49;;;;;;;1999.90;999.90;;;15.40;99.90;;;;;;4961176;29;20043;-73
2022/06/13 01:40:24;;;;;;;1999.90;999.90;;;15.40;99.90;;;;;;4957902;29;20100;-73
2022/06/13 01:42:59;;;;;;;1999.90;999.90;;;15.30;99.90;;;;;;4957702;29;20443;-73
2022/06/13 01:46:03;;;;;;;1999.90;999.90;;;15.30;99.90;;;;;;4957621;29;20390;-78
2022/06/13 01:48:38;;;;;;;1999.90;999.90;;;15.30;99.90;;;;;;4949209;29;20611;-73
2022/06/13 01:51:16;;;;;;;1999.90;999.90;;;15.20;99.90;;;;;;4952620;29;20019;-73
2022/06/13 01:54:20;;;;;;;1999.90;999.90;;;15.20;99.90;;;;;;4957865;29;20047;-79
2022/06/13 01:57:10;;;;;;;1999.90;999.90;;;15.10;99.90;;;;;;4940269;29;20067;-73
2022/06/13 01:59:54;;;;;;;1999.90;999.90;;;15.10;99.90;;;;;;4964192;28;20033;-73
2022/06/13 02:02:53;;;;;;;1999.90;999.90;;;15.10;99.90;;;;;;4975591;28;20031;-80
2022/06/13 02:05:23;;;;;;;1999.90;999.90;;;15.10;99.90;;;;;;4970960;28;20043;-80
2022/06/13 02:07:53;;;;;;;1999.90;999.90;;;15.00;99.90;;;;;;4976510;28;20034;-80
2022/06/13 02:10:23;;;;;;;1999.90;999.90;;;15.00;99.90;;;;;;4963887;28;20042;-80
2022/06/13 02:12:54;;;;;;;1999.90;999.90;;;15.00;99.90;;;;;;4956988;29;20109;-73
2022/06/13 02:15:29;;;;;;;1999.90;999.90;;;15.00;99.90;;;;;;4956736;29;20041;-73
2022/06/13 02:18:05;;;;;;;1999.90;999.90;;;15.00;99.90;;;;;;4952745;29;20391;-78
2022/06/13 02:20:41;;;;;;;1999.90;999.90;;;14.90;99.90;;;;;;4956445;29;20475;-74
2022/06/13 02:23:19;;;;;;;1999.90;999.90;;;14.90;99.90;;;;;;4956920;29;20416;-78
2022/06/13 02:26:04;;;;;;;1999.90;999.90;;;14.90;99.90;;;;;;4956736;29;20023;-74
2022/06/13 02:28:41;;;;;;;1999.90;999.90;;;14.90;99.90;;;;;;4952073;28;20015;-74
2022/06/13 02:31:15;;;;;;;1999.90;999.90;;;14.80;99.90;;;;;;4976094;28;20023;-74
2022/06/13 02:33:48;;;;;;;1999.90;999.90;;;14.80;99.90;;;;;;4976219;28;20113;-73
2022/06/13 02:36:16;;;;;;;;;;;14.80;99.90;;;;;;4937552;29;20380;-73
2022/06/13 02:39:06;;;;;;;1999.90;999.90;;;14.80;99.90;;;;;;4955938;29;19910;-73
2022/06/13 02:41:41;;;;;;;1999.90;999.90;;;14.80;99.90;;;;;;4939363;29;20023;-73
2022/06/13 02:44:24;;;;;;;1999.90;999.90;;;14.70;99.90;;;;;;4956342;29;20050;-73
2022/06/13 02:47:05;;;;;;;1999.90;999.90;;;14.70;99.90;;;;;;4961294;28;20019;-73
2022/06/13 02:49:46;;;;;;;1999.90;999.90;;;14.70;99.90;;;;;;4938509;29;20032;-73
2022/06/13 02:52:27;;;;;;;1999.90;999.90;;;14.60;99.90;;;;;;4953667;28;20137;-73
2022/06/13 02:55:00;;;;;;;1999.90;999.90;;;14.60;99.90;;;;;;4975722;28;20470;-73
2022/06/13 02:57:51;;;;;;;1999.90;999.90;;;14.60;99.90;;;;;;4975863;28;20023;-73
2022/06/13 03:00:17;;;;;;;1999.90;999.90;;;14.60;99.90;;;;;;4971505;28;20038;-73
2022/06/13 03:02:58;;;;;;;1999.90;999.90;;;14.50;99.90;;;;;;4975429;28;20394;-73
2022/06/13 03:05:35;;;;;;;1999.90;999.90;;;14.50;99.90;;;;;;4958425;28;20023;-80
2022/06/13 03:08:21;;;;;;;1999.90;999.90;;;14.40;99.90;;;;;;4957826;29;20030;-78
2022/06/13 03:10:53;;;;;;;1999.90;999.90;;;14.40;99.90;;;;;;4951864;29;20561;-73
2022/06/13 03:13:37;;;;;;;1999.90;999.90;;;14.40;99.90;;;;;;4956135;29;20082;-73
2022/06/13 03:16:17;;;;;;;1999.90;999.90;;;14.40;99.90;;;;;;4955339;29;20266;-73
2022/06/13 03:18:50;;;;;;;1999.90;999.90;;;14.40;99.90;;;;;;4955945;29;20046;-73
2022/06/13 03:21:32;;;;;;;1999.90;999.90;;;14.30;99.90;;;;;;4938146;29;20055;-73
2022/06/13 03:24:10;;;;;;;1999.90;999.90;;;14.30;99.90;;;;;;4965024;28;20057;-73
2022/06/13 03:26:40;;;;;;;1999.90;999.90;;;14.30;99.90;;;;;;4953263;29;20066;-79
2022/06/13 03:29:22;;;;;;;1999.90;999.90;;;14.30;99.90;;;;;;4962156;28;20086;-79
2022/06/13 03:31:57;;;;;;;1999.90;999.90;;;14.20;99.90;;;;;;4974761;28;20042;-73
2022/06/13 03:34:32;;;;;;;1999.90;999.90;;;14.20;99.90;;;;;;4974600;28;20027;-77
2022/06/13 03:37:06;;;;;;;1999.90;999.90;;;14.10;99.90;;;;;;4955962;29;20114;-79
2022/06/13 03:39:41;;;;;;;1999.90;999.90;;;14.10;99.90;;;;;;4954856;28;20364;-73
2022/06/13 03:42:17;;;;;;;1999.90;999.90;;;14.10;99.90;;;;;;4955118;29;20075;-73
2022/06/13 03:45:11;;;;;;;1999.90;999.90;;;14.10;99.90;;;;;;4955316;29;20059;-73
2022/06/13 03:48:11;;;;;;;1999.90;999.90;;;14.10;99.90;;;;;;4961471;28;20446;-73
2022/06/13 03:51:00;;;;;;;1999.90;999.90;;;14.10;99.90;;;;;;4930132;29;20087;-79
2022/06/13 03:53:31;;;;;;;1999.90;999.90;;;14.10;99.90;;;;;;4952633;29;20107;-78
2022/06/13 03:56:13;;;;;;;1999.90;999.90;;;14.00;99.90;;;;;;4943282;29;20376;-73
2022/06/13 03:59:19;;;;;;;1999.90;999.90;;;14.00;99.90;;;;;;4959673;28;20079;-78
2022/06/13 04:01:59;;;;;;;1999.90;999.90;;;13.90;99.90;;;;;;4963863;28;20038;-79
2022/06/13 04:04:32;;;;;;;1999.90;999.90;;;13.90;99.90;;;;;;4975221;28;20382;-73
2022/06/13 04:07:00;;;;;;;1999.90;999.90;;;13.90;99.90;;;;;;4956821;28;20125;-73
2022/06/13 04:09:30;;;;;;;1999.90;999.90;;;13.90;99.90;;;;;;4972237;28;20390;-78
2022/06/13 04:12:23;;;;;;;1999.90;999.90;;;13.80;99.90;;;;;;4951527;29;20079;-73
2022/06/13 04:15:25;;;;;;;1999.90;999.90;;;13.80;99.90;;;;;;4954418;29;20031;-73
2022/06/13 04:17:56;;;;;;;1999.90;999.90;;;13.70;99.90;;;;;;4913181;28;20340;-73
2022/06/13 04:20:59;;;;;;;1999.90;999.90;;;13.70;99.90;;;;;;4974600;28;20058;-73
2022/06/13 04:23:42;;;;;;;1999.90;999.90;;;13.70;99.90;;;;;;4973643;28;20487;-73
2022/06/13 04:26:17;;;;;;;1999.90;999.90;;;13.70;99.90;;;;;;4973775;28;20062;-73
2022/06/13 04:28:49;;;;;;;1999.90;999.90;;;13.80;99.90;;;;;;4957574;28;20402;-79
2022/06/13 04:31:18;;;;;;;1999.90;999.90;;;13.80;99.90;;;;;;4973553;28;20057;-74
2022/06/13 04:34:01;;;;;;;1999.90;999.90;;;13.90;99.90;;;;;;4974320;28;20030;-73
2022/06/13 04:36:29;;;;;;;1999.90;999.90;;;13.90;99.90;;;;;;4953675;29;20031;-73
2022/06/13 04:38:57;;;;;;;1999.90;999.90;;;14.00;99.90;;;;;;4954597;29;20038;-73
2022/06/13 04:41:26;;;;;;;1999.90;999.90;;;14.10;99.90;;;;;;4953890;29;20048;-73
2022/06/13 04:43:56;;;;;;;1999.90;999.90;;;14.10;99.90;;;;;;4954566;29;20082;-73
2022/06/13 04:46:25;;;;;;;1999.90;999.90;;;14.20;99.90;;;;;;4956185;28;20019;-73
2022/06/13 04:48:57;;;;;;;1999.90;999.90;;;14.20;99.90;;;;;;4957165;28;20023;-73
2022/06/13 04:51:30;;;;;;;1999.90;999.90;;;14.30;99.90;;;;;;4954643;28;20034;-73
2022/06/13 04:54:06;;;;;;;1999.90;999.90;;;14.30;99.90;;;;;;4954935;29;20102;-73
2022/06/13 04:56:33;;;;;;;1999.90;999.90;;;14.30;99.90;;;;;;4957126;29;20098;-78
2022/06/13 04:59:00;;;;;;;1999.90;999.90;;;14.30;99.90;;;;;;4935332;29;20039;-74
2022/06/13 05:01:30;;;;;;;1999.90;999.90;;;14.40;99.90;;;;;;4963060;28;20375;-73
2022/06/13 05:03:57;;;;;;;1999.90;999.90;;;14.40;99.90;;;;;;4977276;28;20454;-73
2022/06/13 05:06:31;;;;;;;1999.90;999.90;;;14.50;99.90;;;;;;4968907;28;20059;-78
2022/06/13 05:09:01;;;;;;;1999.90;999.90;;;14.50;99.90;;;;;;4971261;28;20019;-74
2022/06/13 05:11:41;;;;;;;1999.90;999.90;;;14.50;99.90;;;;;;4953646;28;20115;-78
2022/06/13 05:14:15;;;;;;;1999.90;999.90;;;14.50;99.90;;;;;;4957779;29;20435;-73
2022/06/13 05:16:50;;;;;;;1999.90;999.90;;;14.60;99.90;;;;;;4956641;29;20046;-73
2022/06/13 05:19:34;;;;;;;1999.90;999.90;;;14.60;99.90;;;;;;4958012;29;20023;-73
2022/06/13 05:22:16;;;;;;;1999.90;999.90;;;14.70;99.90;;;;;;4957368;29;20039;-73
2022/06/13 05:24:59;;;;;;;1999.90;999.90;;;14.70;99.90;;;;;;4957689;29;20395;-78
2022/06/13 05:27:25;;;;;;;1999.90;999.90;;;14.70;99.90;;;;;;4957009;29;20507;-73
2022/06/13 05:29:51;;;;;;;1999.90;999.90;;;14.80;99.90;;;;;;4952170;29;20392;-73
2022/06/13 05:32:21;;;;;;;1999.90;999.90;;;14.80;99.90;;;;;;4957098;29;20031;-73
2022/06/13 05:34:48;;;;;;;1999.90;999.90;;;14.90;99.90;;;;;;4957345;29;20027;-73
2022/06/13 05:37:16;;;;;;;1999.90;999.90;;;15.00;99.90;;;;;;4965267;28;20536;-79
2022/06/13 05:39:42;;;;;;;1999.90;999.90;;;15.00;99.90;;;;;;4957049;29;20023;-76
2022/06/13 05:42:10;;;;;;;1999.90;999.90;;;15.00;99.90;;;;;;4935870;29;20067;-74
2022/06/13 05:44:36;;;;;;;1999.90;999.90;;;15.10;99.90;;;;;;4957146;29;20083;-73
2022/06/13 05:47:02;;;;;;;1999.90;999.90;;;15.10;99.90;;;;;;4963310;28;20038;-73
2022/06/13 05:49:28;;;;;;;1999.90;999.90;;;15.20;99.90;;;;;;4945193;28;20033;-79
2022/06/13 05:51:53;;;;;;;1999.90;999.90;;;15.20;99.90;;;;;;4974716;28;20055;-79
2022/06/13 05:54:19;;;;;;;1999.90;999.90;;;15.30;99.90;;;;;;4955705;29;20454;-77
2022/06/13 05:56:45;;;;;;;1999.90;999.90;;;15.30;99.90;;;;;;4950869;29;20039;-73
2022/06/13 05:59:10;;;;;;;1999.90;999.90;;;15.40;99.90;;;;;;4956348;29;20024;-73
2022/06/13 06:01:36;;;;;;;1999.90;999.90;;;15.40;99.90;;;;;;4965099;28;20034;-77
2022/06/13 06:04:03;;;;;;;1999.90;999.90;;;15.50;99.90;;;;;;4948585;28;20027;-77
2022/06/13 06:06:30;;;;;;;1999.90;999.90;;;15.60;99.90;;;;;;4955101;29;20055;-77
2022/06/13 06:08:56;;;;;;;1999.90;999.90;;;15.60;99.90;;;;;;4950112;29;20031;-76
2022/06/13 06:11:27;;;;;;;1999.90;999.90;;;15.70;99.90;;;;;;4949301;29;20033;-77
2022/06/13 06:13:53;;;;;;;1999.90;999.90;;;15.70;99.90;;;;;;4937469;29;20141;-73
2022/06/13 06:16:21;;;;;;;1999.90;999.90;;;15.80;99.90;;;;;;4942967;29;20039;-78
2022/06/13 06:18:48;;;;;;;1999.90;999.90;;;15.90;99.90;;;;;;4938666;29;20037;-77
2022/06/13 06:21:13;;;;;;;1999.90;999.90;;;15.90;99.90;;;;;;4953141;29;20027;-73
2022/06/13 06:23:39;;;;;;;1999.90;999.90;;;16.00;99.90;;;;;;4949851;28;20042;-73
2022/06/13 06:26:06;;;;;;;1999.90;999.90;;;16.10;99.90;;;;;;4971897;28;20035;-77
2022/06/13 06:28:32;;;;;;;1999.90;999.90;;;16.20;99.90;;;;;;4952841;29;20091;-73
2022/06/13 06:30:59;;;;;;;1999.90;999.90;;;16.20;99.90;;;;;;4956151;28;20451;-76
2022/06/13 06:33:27;;;;;;;1999.90;999.90;;;16.30;99.90;;;;;;4954398;29;20031;-75
2022/06/13 06:35:53;;;;;;;1999.90;999.90;;;16.40;99.90;;;;;;4953290;29;20027;-79
2022/06/13 06:38:24;;;;;;;1999.90;999.90;;;16.50;99.90;;;;;;4945789;29;20024;-73
2022/06/13 06:40:50;;;;;;;1999.90;999.90;;;16.50;99.90;;;;;;4926723;29;20450;-77
2022/06/13 06:43:16;;;;;;;1999.90;999.90;;;16.60;99.90;;;;;;4940796;29;20027;-78
2022/06/13 06:45:42;;;;;;;1999.90;999.90;;;16.70;99.90;;;;;;4951158;29;20038;-73
2022/06/13 06:48:20;;;;;;;1999.90;999.90;;;16.70;99.90;;;;;;4962105;28;20418;-73
2022/06/13 06:50:49;;;;;;;1999.90;999.90;;;16.80;99.90;;;;;;4953674;29;20027;-73
2022/06/13 06:53:17;;;;;;;1999.90;999.90;;;17.00;99.90;;;;;;4937012;29;20047;-78
2022/06/13 07:01:13;;;;;;;1999.90;999.90;;;17.40;99.50;;;;;;4954280;28;20038;-73
2022/06/13 07:03:40;;;;;;;1999.90;999.90;;;17.50;99.20;;;;;;4953012;29;20042;-73
2022/06/13 07:06:07;;;;;;;1999.90;999.90;;;17.50;99.20;;;;;;4952897;28;20047;-77
2022/06/13 07:08:36;;;;;;;1999.90;999.90;;;17.70;98.90;;;;;;4938300;28;20032;-79
2022/06/13 07:13:50;;;;;;;1999.90;999.90;;;17.80;97.80;;;;;;4948077;29;20154;-73
2022/06/13 07:16:15;;;;;;;1999.90;999.90;;;17.90;97.70;;;;;;4952780;28;20110;-74
2022/06/13 07:18:41;;;;;;;1999.90;999.90;;;18.10;97.90;;;;;;4941169;28;20134;-73
2022/06/13 07:21:08;;;;;;;1999.90;999.90;;;18.30;97.50;;;;;;4952069;29;20058;-78
2022/06/13 07:23:33;;;;;;;1999.90;999.90;;;18.30;97.70;;;;;;4952159;29;20023;-75
2022/06/13 07:25:59;;;;;;;1999.90;999.90;;;18.50;97.80;;;;;;4952876;29;20122;-77
2022/06/13 07:28:25;;;;;;;1999.90;999.90;;;18.60;97.90;;;;;;4952254;29;20149;-73
2022/06/13 07:30:51;;;;;;;1999.90;999.90;;;19.30;97.20;;;;;;4952202;29;20093;-74
2022/06/13 07:33:17;;;;;;;1999.90;999.90;;;21.00;95.20;;;;;;4934422;29;20023;-74
2022/06/13 07:35:43;;;;;;;1999.90;999.90;;;23.20;92.20;;;;;;4952802;28;20035;-77
2022/06/13 07:38:16;;;;;;;1999.90;999.90;;;24.60;90.20;;;;;;4942742;28;20378;-78
2022/06/13 07:40:47;;;;;;;1999.90;999.90;;;25.70;88.20;;;;;;4936397;29;20061;-75
2022/06/13 07:43:20;;;;;;;1999.90;999.90;;;25.80;86.50;;;;;;4951323;29;20027;-80
2022/06/13 07:45:46;;;;;;;1999.90;999.90;;;25.70;86.00;;;;;;4952075;29;20101;-77
2022/06/13 07:48:11;;;;;;;1999.90;999.90;;;25.90;84.50;;;;;;4951635;29;20467;-74
2022/06/13 07:50:37;;;;;;;1999.90;999.90;;;26.00;83.90;;;;;;4951820;29;20035;-77
2022/06/13 07:53:03;;;;;;;1999.90;999.90;;;26.00;83.30;;;;;;4947824;28;20063;-74
2022/06/13 07:55:31;;;;;;;1999.90;999.90;;;26.40;81.90;;;;;;4917497;29;20031;-75
2022/06/13 07:57:57;;;;;;;1999.90;999.90;;;26.90;82.30;;;;;;4943314;29;20051;-82
2022/06/13 08:00:26;;;;;;;1999.90;999.90;;;26.90;81.70;;;;;;4944640;29;20458;-83
2022/06/13 08:02:54;;;;;;;1999.90;999.90;;;27.40;80.10;;;;;;4946151;29;20023;-81
2022/06/13 08:05:20;;;;;;;1999.90;999.90;;;27.80;80.40;;;;;;4942366;29;20086;-83
2022/06/13 08:07:46;;;;;;;1999.90;999.90;;;28.10;79.40;;;;;;4946540;28;20042;-77
2022/06/13 08:10:12;;;;;;;1999.90;999.90;;;28.30;78.50;;;;;;4945994;28;20039;-77
2022/06/13 08:12:42;;;;;;;1999.90;999.90;;;28.00;78.90;;;;;;4967360;28;20035;-81
2022/06/13 08:15:08;;;;;;;1999.90;999.90;;;28.00;77.90;;;;;;4960945;28;20035;-77
2022/06/13 08:17:34;;;;;;;1999.90;999.90;;;29.10;78.20;;;;;;4945567;28;20054;-87
2022/06/13 08:20:00;;;;;;;1999.90;999.90;;;29.40;77.30;;;;;;4956127;28;20130;-82
2022/06/13 08:22:26;;;;;;;1999.90;999.90;;;29.50;77.00;;;;;;4952028;28;20042;-78
2022/06/13 08:24:51;;;;;;;1999.90;999.90;;;29.40;76.40;;;;;;4968716;28;20452;-83
2022/06/13 08:27:17;;;;;;;1999.90;999.90;;;29.60;76.60;;;;;;4954465;28;20035;-86
2022/06/13 08:29:43;;;;;;;1999.90;999.90;;;30.10;77.50;;;;;;4948745;28;20027;-77
2022/06/13 08:32:09;;;;;;;1999.90;999.90;;;30.10;75.70;;;;;;4948356;29;20027;-77
2022/06/13 08:34:35;;;;;;;1999.90;999.90;;;30.60;75.40;;;;;;4960721;28;20031;-77
2022/06/13 08:37:01;;;;;;;1999.90;999.90;;;30.80;75.30;;;;;;4971176;28;20105;-86
2022/06/13 08:39:26;;;;;;;1999.90;999.90;;;31.20;75.00;;;;;;4959065;28;20032;-84
2022/06/13 08:42:05;;;;;;;1999.90;999.90;;;30.70;74.60;;;;;;4968241;28;20067;-78
2022/06/13 08:44:44;;;;;;;1999.90;999.90;;;31.10;74.70;;;;;;4953765;28;20517;-78
2022/06/13 08:47:23;;;;;;;1999.90;999.90;;;31.40;73.80;;;;;;4944155;28;20380;-78
2022/06/13 08:50:19;;;;;;;1999.90;999.90;;;31.40;73.70;;;;;;4945177;29;20027;-82
2022/06/13 08:52:50;;;;;;;1999.90;999.90;;;32.10;73.80;;;;;;4953261;28;20054;-86
2022/06/13 08:55:19;;;;;;;1999.90;999.90;;;32.20;73.20;;;;;;4935452;29;20503;-86
2022/06/13 08:57:55;;;;;;;1999.90;999.90;;;31.90;73.30;;;;;;4954226;28;20086;-85
2022/06/13 09:00:24;;;;;;;1999.90;999.90;;;31.90;73.10;;;;;;4952072;28;20031;-79
2022/06/13 09:02:55;;;;;;;1999.90;999.90;;;31.90;72.90;;;;;;4946348;29;20129;-84
2022/06/13 09:05:29;;;;;;;1999.90;999.90;;;32.30;73.70;;;;;;4941043;28;20110;-85
2022/06/13 09:08:17;;;;;;;1999.90;999.90;;;33.00;72.80;;;;;;4946344;29;20053;-85
2022/06/13 09:11:04;;;;;;;1999.90;999.90;;;32.80;72.30;;;;;;4945090;28;20098;-79
2022/06/13 09:13:52;;;;;;;1999.90;999.90;;;33.10;72.10;;;;;;4947600;28;20019;-79
2022/06/13 09:16:27;;;;;;;1999.90;999.90;;;32.80;71.40;;;;;;4937966;29;20114;-84
2022/06/13 09:18:59;;;;;;;1999.90;999.90;;;33.10;71.10;;;;;;4924285;29;20057;-86
2022/06/13 09:21:33;;;;;;;;;;;33.80;71.20;;;;;;4936776;29;20051;-80
2022/06/13 09:24:31;;;;;;;1999.90;999.90;;;33.90;70.80;;;;;;4960429;28;20004;-85
2022/06/13 09:27:24;;;;;;;1999.90;999.90;;;34.20;71.00;;;;;;4945338;29;20027;-79
2022/06/13 09:30:02;;;;;;;1999.90;999.90;;;34.00;71.30;;;;;;4939538;29;20058;-87
2022/06/13 09:32:53;;;;;;;1999.90;999.90;;;33.90;69.80;;;;;;4933840;29;20123;-87
2022/06/13 09:35:27;;;;;;;1999.90;999.90;;;34.10;69.70;;;;;;4950493;29;20066;-78
2022/06/13 09:38:15;;;;;;;1999.90;999.90;;;34.00;69.70;;;;;;4961395;28;20609;-86
2022/06/13 09:41:02;;;;;;;1999.90;999.90;;;33.80;69.50;;;;;;4950408;28;20023;-85
2022/06/13 09:43:52;;;;;;;1999.90;999.90;;;33.60;69.00;;;;;;4963343;28;20066;-86
2022/06/13 09:46:38;;;;;;;1999.90;999.90;;;34.10;69.30;;;;;;4939326;29;20387;-84
2022/06/13 09:49:24;;;;;;;1999.90;999.90;;;33.40;68.70;;;;;;4952694;28;20054;-78
2022/06/13 09:52:05;;;;;;;1999.90;999.90;;;33.30;69.10;;;;;;4966949;28;20050;-78
2022/06/13 09:54:50;;;;;;;1999.90;999.90;;;33.50;69.10;;;;;;4961443;28;20027;-84
2022/06/13 09:57:41;;;;;;;1999.90;999.90;;;33.50;69.00;;;;;;4953970;29;20116;-87
2022/06/13 10:00:07;;;;;;;1999.90;999.90;;;33.50;68.60;;;;;;4971994;28;20038;-77
2022/06/13 10:03:08;;;;;;;1999.90;999.90;;;33.30;70.80;;;;;;4975151;28;20031;-79
2022/06/13 10:05:44;;;;;;;1999.90;999.90;;;33.30;68.80;;;;;;4951089;28;20379;-87
2022/06/13 10:08:26;;;;;;;1999.90;999.90;;;33.70;69.80;;;;;;4965098;28;20106;-88
2022/06/13 10:10:59;;;;;;;1999.90;999.90;;;33.80;69.90;;;;;;4948389;28;20438;-88
2022/06/13 10:13:39;;;;;;;1999.90;999.90;;;34.50;69.10;;;;;;4966450;28;20494;-88
2022/06/13 10:16:16;;;;;;;1999.90;999.90;;;34.00;67.70;;;;;;4953489;29;20027;-78
2022/06/13 10:18:57;;;;;;;1999.90;999.90;;;34.60;68.30;;;;;;4936976;29;20027;-78
2022/06/13 10:21:46;;;;;;;1999.90;999.90;;;34.30;68.20;;;;;;4955145;28;20027;-77
2022/06/13 10:24:30;;;;;;;1999.90;999.90;;;34.00;68.60;;;;;;4985977;28;20031;-80
2022/06/13 10:27:11;;;;;;;1999.90;999.90;;;33.90;69.00;;;;;;4981023;28;20091;-84
2022/06/13 10:30:17;;;;;;;1999.90;999.90;;;33.80;69.20;;;;;;4994646;28;20026;-78
2022/06/13 10:33:05;;;;;;;1999.90;999.90;;;33.80;68.30;;;;;;4958151;28;20467;-77
2022/06/13 10:35:46;;;;;;;1999.90;999.90;;;33.40;69.10;;;;;;4961736;28;20031;-81
2022/06/13 10:38:44;;;;;;;1999.90;999.90;;;32.80;69.50;;;;;;4962553;28;20019;-78
2022/06/13 10:41:10;;;;;;;1999.90;999.90;;;33.40;70.00;;;;;;4936255;29;20114;-78
2022/06/13 10:43:42;;;;;;;1999.90;999.90;;;33.90;69.90;;;;;;4956278;28;20108;-84
2022/06/13 10:46:11;;;;;;;1999.90;999.90;;;33.80;68.80;;;;;;4951803;29;20081;-84
2022/06/13 10:49:19;;;;;;;1999.90;999.90;;;34.10;67.60;;;;;;4931408;29;20375;-78
2022/06/13 10:51:46;;;;;;;1999.90;999.90;;;34.20;67.20;;;;;;4923688;28;20510;-82
2022/06/13 10:54:23;;;;;;;1999.90;999.90;;;34.20;68.80;;;;;;4936038;29;20035;-78
2022/06/13 10:57:05;;;;;;;1999.90;999.90;;;34.00;68.00;;;;;;4958010;28;20107;-78
2022/06/13 10:59:34;;;;;;;1999.90;999.90;;;34.80;68.00;;;;;;4956252;28;20035;-78
2022/06/13 11:02:03;;;;;;;1999.90;999.90;;;34.80;67.20;;;;;;4947925;28;20030;-86
2022/06/13 11:04:31;;;;;;;1999.90;999.90;;;34.30;67.90;;;;;;4957167;28;20486;-86
2022/06/13 11:07:11;;;;;;;1999.90;999.90;;;33.80;67.80;;;;;;4953190;28;20027;-78
2022/06/13 11:09:44;;;;;;;1999.90;999.90;;;34.00;67.10;;;;;;4947906;29;20031;-84
2022/06/13 11:12:36;;;;;;;1999.90;999.90;;;33.50;67.40;;;;;;4927066;29;20035;-83
2022/06/13 11:23:55;;;;;;;1999.90;999.90;;;33.90;67.30;;;;;;4947658;29;20078;-78
2022/06/13 11:29:12;;;;;;;1999.90;999.90;;;33.70;66.40;;;;;;4947572;28;20035;-84
2022/06/13 11:31:48;;;;;;;1999.90;999.90;;;34.00;65.30;;;;;;4951020;29;20045;-78
2022/06/13 11:34:34;;;;;;;1999.90;999.90;;;34.80;65.80;;;;;;4936780;28;20035;-84
2022/06/13 11:37:03;;;;;;;1999.90;999.90;;;34.10;65.70;;;;;;4964753;28;20420;-78
2022/06/13 11:39:35;;;;;;;1999.90;999.90;;;34.10;65.60;;;;;;4953855;28;20052;-86
2022/06/13 11:42:02;;;;;;;1999.90;999.90;;;34.10;65.40;;;;;;4947940;29;20070;-85
2022/06/13 11:44:28;;;;;;;1999.90;999.90;;;33.90;64.90;;;;;;4953202;28;20031;-86
2022/06/13 11:47:01;;;;;;;1999.90;999.90;;;34.10;63.80;;;;;;4957849;28;20035;-78
2022/06/13 11:49:40;;;;;;;1999.90;999.90;;;33.40;64.30;;;;;;4969652;28;20062;-77
2022/06/13 11:52:11;;;;;;;1999.90;999.90;;;33.30;66.30;;;;;;4959294;28;20055;-78
2022/06/13 11:54:41;;;;;;;1999.90;999.90;;;32.90;64.00;;;;;;4963008;28;20035;-85
2022/06/13 11:57:12;;;;;;;1999.90;999.90;;;32.70;63.90;;;;;;4958553;28;20094;-85
2022/06/13 12:00:03;;;;;;;1999.90;999.90;;;33.40;64.40;;;;;;4950329;28;20027;-85
2022/06/13 12:02:39;;;;;;;1999.90;999.90;;;32.90;64.20;;;;;;4946035;28;20368;-78
2022/06/13 12:05:19;;;;;;;1999.90;999.90;;;33.40;63.30;;;;;;4965701;28;20546;-86
2022/06/13 12:08:14;;;;;;;1999.90;999.90;;;33.50;64.20;;;;;;4971859;28;20062;-82
2022/06/13 12:11:01;;;;;;;1999.90;999.90;;;32.90;63.50;;;;;;4939206;28;20105;-84
2022/06/13 12:13:30;;;;;;;1999.90;999.90;;;33.30;65.60;;;;;;4927702;29;20039;-85
2022/06/13 12:16:05;;;;;;;1999.90;999.90;;;33.20;64.40;;;;;;4954171;29;20034;-77
2022/06/13 12:18:39;;;;;;;1999.90;999.90;;;33.90;64.20;;;;;;4951894;29;20019;-85
2022/06/13 12:21:24;;;;;;;1999.90;999.90;;;33.60;65.60;;;;;;4969627;29;20092;-85
2022/06/13 12:24:18;;;;;;;1999.90;999.90;;;34.10;65.10;;;;;;4952427;29;20031;-85
2022/06/13 12:26:57;;;;;;;1999.90;999.90;;;33.20;63.10;;;;;;4952848;28;20581;-77
2022/06/13 12:29:37;;;;;;;1999.90;999.90;;;32.80;64.40;;;;;;4945802;29;20492;-78
2022/06/13 12:32:25;;;;;;;1999.90;999.90;;;33.30;65.40;;;;;;4951206;28;20082;-85
2022/06/13 12:35:12;;;;;;;1999.90;999.90;;;33.10;64.90;;;;;;4959006;28;20112;-86
2022/06/13 12:38:02;;;;;;;1999.90;999.90;;;32.80;64.60;;;;;;4955582;28;20031;-85
2022/06/13 12:40:51;;;;;;;1999.90;999.90;;;33.10;63.80;;;;;;4956441;28;20023;-84
2022/06/13 12:43:37;;;;;;;1999.90;999.90;;;33.00;64.70;;;;;;4942938;29;20475;-76
2022/06/13 12:46:43;;;;;;;1999.90;999.90;;;32.80;65.40;;;;;;4966339;28;20109;-86
2022/06/13 12:49:45;;;;;;;1999.90;999.90;;;31.90;64.20;;;;;;4937226;28;20101;-76
2022/06/13 12:52:35;;;;;;;1999.90;999.90;;;31.60;63.40;;;;;;4923974;29;20134;-76
2022/06/13 12:55:24;;;;;;;1999.90;999.90;;;31.40;65.80;;;;;;4942367;28;20110;-76
2022/06/13 12:58:04;;;;;;;1999.90;999.90;;;30.80;66.40;;;;;;4925473;29;20395;-85
2022/06/13 13:00:36;;;;;;;1999.90;999.90;;;31.10;66.90;;;;;;4953949;28;20455;-87
2022/06/13 13:03:40;;;;;;;1999.90;999.90;;;30.50;64.30;;;;;;4964125;28;20033;-76